KHLX

Twin County Airport

Galax Hillsville, Virginia, USA
METAR KHLX 210355Z AUTO 16003KT 10SM BKN009 BKN013 BKN042 20/20 A3013 RMK AO2 T02040197
Observed Flight Rules
Aug-21 @ 03:55 UTC (16 minutes ago) Instrument Flight Rules
Wind Visibility Clouds
160° at 3 knots 10 miles
  • Broken at 900' AGL
  • Broken at 1,300' AGL
  • Broken at 4,200' AGL
Temperatures Readings
Current 20°C / 68°F
Dewpoint 20°C / 68°F
Humidity 100%
Altimeter 30.13" Hg
Pressure 1020 hPa
Elevation 834
METAR KHLX 210355Z AUTO 16003KT 10SM BKN009 BKN013 BKN042 20/20 A3013 RMK AO2 T02040197
Observed Flight Rules
Aug-21 @ 03:55 UTC
(16 minutes ago)
IFR
Wind Visibility
160° at 3 knots 10 miles
Clouds
  • Broken at 900' AGL
  • Broken at 1,300' AGL
  • Broken at 4,200' AGL
Temperature Dewpoint
20°C / 68°F 20°C / 68°F
Humidity Altimeter Pressure
100% 30.13" Hg 1020 hPa